Terminal Aerodrome Forecast
Issued by NWS

Home | Current Version | Previous Version | Text Only | Print | Product List | Glossary On
Versions: 1 2 3 4 5 6 7 8 9 10 11 12 13 14 15 16 17 18 19 20 21 22 23 24 25 26 27 28 29 30 31 32 33 34
000
FTUS43 KDMX 242340
TAFMCW
TAF
KMCW 242340Z 2500/2524 12014G21KT P6SM SCT015 BKN028
      TEMPO 2500/2502 BKN013
     FM250800 10011G18KT 5SM -RA BKN008 OVC018
     FM251200 08016G22KT 4SM BR VCSH OVC006
     FM251900 07015KT P6SM BKN012=

USA.gov is the U.S. government's official web portal to all federal, state and local government web resources and services.